Terminal Aerodrome Forecast
Issued by NWS Pueblo, CO

Home | Current Version | Previous Version | Text Only | Print | Product List | Glossary On
Versions: 1 2 3 4 5 6 7 8 9 10 11 12 13 14 15 16 17 18 19 20 21 22 23 24 25 26
000
FTUS45 KPUB 162320
TAFALS
TAF
KALS 162320Z 1700/1724 33013KT P6SM VCSH FEW070 OVC090
     FM170100 04008KT 5SM -SHSN OVC015
      TEMPO 1702/1705 1SM -SHSN BR OVC008
     FM170600 VRB05KT P6SM VCSH FEW020 BKN040
     FM171000 VRB06KT P6SM SCT120 SCT200
     FM172000 20012KT P6SM FEW200=

USA.gov is the U.S. government's official web portal to all federal, state and local government web resources and services.